Time;durP1;ratioP1;P1;durP2;ratioP2;P2;SDS_P1;SDS_P2;PMS_P1;PMS_P2;Temp;Humidity;BMP_temperature;BMP_pressure;BME280_temperature;BME280_humidity;BME280_pressure;Samples;Min_cycle;Max_cycle;Signal;HPM_P1;HPM_P2
2023/08/10 00:00:25;;;;;;;2.78;1.50;;;12.20;99.90;;;;;;5035415;28;20045;-79
2023/08/10 00:02:52;;;;;;;3.40;0.93;;;12.20;99.90;;;;;;5034117;28;20036;-81
2023/08/10 00:05:19;;;;;;;5.18;2.67;;;12.10;99.90;;;;;;5032620;28;20045;-80
2023/08/10 00:07:45;;;;;;;2.40;1.10;;;12.10;99.90;;;;;;5035779;28;20284;-81
2023/08/10 00:10:11;;;;;;;3.15;1.30;;;12.00;99.90;;;;;;5035569;28;20029;-81
2023/08/10 00:12:38;;;;;;;7.40;1.80;;;12.00;99.90;;;;;;5035967;28;20034;-81
2023/08/10 00:15:05;;;;;;;2.95;1.35;;;12.00;99.90;;;;;;5037212;28;20037;-80
2023/08/10 00:17:32;;;;;;;3.45;1.40;;;12.20;99.90;;;;;;5034119;28;20034;-81
2023/08/10 00:19:58;;;;;;;3.33;1.30;;;12.20;99.90;;;;;;5038998;28;20060;-81
2023/08/10 00:22:24;;;;;;;11.15;2.20;;;12.20;99.90;;;;;;5032861;28;20493;-81
2023/08/10 00:24:50;;;;;;;3.22;1.23;;;12.00;99.90;;;;;;5034932;28;20033;-81
2023/08/10 00:27:17;;;;;;;3.72;1.10;;;11.90;99.90;;;;;;5033114;28;20046;-81
2023/08/10 00:29:44;;;;;;;4.03;1.13;;;11.90;99.90;;;;;;5032571;28;20045;-81
2023/08/10 00:32:10;;;;;;;5.63;1.30;;;12.00;99.90;;;;;;5032969;28;20037;-79
2023/08/10 00:34:36;;;;;;;4.93;1.00;;;12.20;99.90;;;;;;5051926;28;20041;-81
2023/08/10 00:37:03;;;;;;;3.92;1.52;;;12.30;99.90;;;;;;5034887;28;20253;-78
2023/08/10 00:39:31;;;;;;;3.15;0.90;;;12.30;99.90;;;;;;5049466;28;20398;-80
2023/08/10 00:41:57;;;;;;;4.57;1.58;;;12.10;99.90;;;;;;5036725;28;20497;-81
2023/08/10 00:44:23;;;;;;;3.60;1.52;;;12.00;99.90;;;;;;5036041;28;20402;-78
2023/08/10 00:46:50;;;;;;;4.15;1.25;;;11.90;99.90;;;;;;5032205;28;20060;-79
2023/08/10 00:49:16;;;;;;;3.33;1.00;;;11.80;99.90;;;;;;5036895;28;20040;-80
2023/08/10 00:51:42;;;;;;;3.72;0.90;;;11.80;99.90;;;;;;5034451;28;20044;-80
2023/08/10 00:54:08;;;;;;;3.38;1.20;;;11.80;99.90;;;;;;5036689;28;20036;-79
2023/08/10 00:56:34;;;;;;;3.22;1.35;;;11.70;99.90;;;;;;5038748;28;20037;-80
2023/08/10 00:59:04;;;;;;;3.00;1.23;;;11.70;99.90;;;;;;5038538;28;20049;-79
2023/08/10 01:01:31;;;;;;;6.87;1.00;;;11.60;99.90;;;;;;5036522;28;20030;-77
2023/08/10 01:03:57;;;;;;;2.75;1.10;;;11.60;99.90;;;;;;5042720;28;20291;-79
2023/08/10 01:06:40;;;;;;;4.15;1.55;;;11.50;99.90;;;;;;5035963;28;20045;-79
2023/08/10 01:09:33;;;;;;;3.47;1.42;;;11.60;99.90;;;;;;5036664;28;20046;-80
2023/08/10 01:12:20;;;;;;;2.47;1.05;;;11.50;99.90;;;;;;5050879;28;20506;-80
2023/08/10 01:15:03;;;;;;;5.53;1.15;;;11.50;99.90;;;;;;5039957;28;20037;-78
2023/08/10 01:17:33;;;;;;;3.17;1.00;;;11.40;99.90;;;;;;5033263;28;20040;-77
2023/08/10 01:20:04;;;;;;;3.22;1.08;;;11.30;99.90;;;;;;5037495;28;20045;-79
2023/08/10 01:22:48;;;;;;;4.28;1.30;;;11.30;99.90;;;;;;5034081;28;20029;-77
2023/08/10 01:25:16;;;;;;;7.75;1.58;;;11.30;99.90;;;;;;5050427;28;20049;-80
2023/08/10 01:27:45;;;;;;;3.17;1.27;;;11.30;99.90;;;;;;5032841;28;20049;-81
2023/08/10 01:30:12;;;;;;;2.95;1.92;;;11.30;99.90;;;;;;5034856;28;20032;-81
2023/08/10 01:32:41;;;;;;;2.47;1.38;;;11.20;99.90;;;;;;5037540;28;20025;-80
2023/08/10 01:35:10;;;;;;;4.22;1.75;;;11.20;99.90;;;;;;5031492;28;20367;-78
2023/08/10 01:37:37;;;;;;;3.28;1.13;;;11.20;99.90;;;;;;5037608;28;20029;-81
2023/08/10 01:40:07;;;;;;;5.32;1.00;;;11.20;99.90;;;;;;5031047;28;20032;-80
2023/08/10 01:42:34;;;;;;;2.95;1.40;;;11.10;99.90;;;;;;5033116;28;20108;-79
2023/08/10 01:45:01;;;;;;;5.28;1.48;;;11.20;99.90;;;;;;5027238;28;20041;-80
2023/08/10 01:47:54;;;;;;;2.45;1.10;;;11.10;99.90;;;;;;5038952;28;20049;-80
2023/08/10 01:50:24;;;;;;;2.97;1.40;;;11.10;99.90;;;;;;5024125;28;20045;-79
2023/08/10 01:52:56;;;;;;;3.20;1.63;;;11.10;99.90;;;;;;5036218;28;20040;-79
2023/08/10 01:55:23;;;;;;;5.07;1.70;;;11.20;99.90;;;;;;5046297;28;20061;-79
2023/08/10 01:57:49;;;;;;;2.50;1.30;;;11.40;99.90;;;;;;5032822;28;20044;-79
2023/08/10 02:00:18;;;;;;;4.57;1.60;;;11.40;99.90;;;;;;5032748;28;20899;-80
2023/08/10 02:02:47;;;;;;;5.47;1.40;;;11.30;99.90;;;;;;5034582;28;20386;-79
2023/08/10 02:05:14;;;;;;;2.67;1.10;;;11.20;99.90;;;;;;5032594;28;20052;-80
2023/08/10 02:07:41;;;;;;;2.15;1.08;;;11.20;99.90;;;;;;5020941;28;20049;-80
2023/08/10 02:10:11;;;;;;;4.25;1.15;;;11.20;99.90;;;;;;5030632;28;20346;-80
2023/08/10 02:12:37;;;;;;;7.07;1.73;;;11.20;99.90;;;;;;5029565;28;20061;-80
2023/08/10 02:15:05;;;;;;;5.63;1.88;;;11.30;99.90;;;;;;5039836;28;20489;-79
2023/08/10 02:17:35;;;;;;;4.95;1.40;;;11.40;99.90;;;;;;5039113;28;20029;-78
2023/08/10 02:20:11;;;;;;;6.50;2.58;;;11.50;99.90;;;;;;5036428;28;20467;-80
2023/08/10 02:22:41;;;;;;;1.92;1.13;;;11.60;99.90;;;;;;5024074;28;20132;-80
2023/08/10 02:25:07;;;;;;;3.75;1.35;;;11.60;99.90;;;;;;5032423;28;20041;-80
2023/08/10 02:27:34;;;;;;;2.92;1.23;;;11.70;99.90;;;;;;5034747;28;20053;-77
2023/08/10 02:30:00;;;;;;;3.80;2.00;;;11.70;99.90;;;;;;5038628;28;20048;-80
2023/08/10 02:32:26;;;;;;;4.63;1.80;;;11.60;99.90;;;;;;5041895;28;20374;-80
2023/08/10 02:34:52;;;;;;;3.22;1.33;;;11.60;99.90;;;;;;5041218;28;20056;-80
2023/08/10 02:37:19;;;;;;;5.43;1.30;;;11.50;99.90;;;;;;5047616;28;20040;-79
2023/08/10 02:39:45;;;;;;;3.13;1.48;;;11.50;99.90;;;;;;5054593;28;20041;-81
2023/08/10 02:42:11;;;;;;;6.90;1.92;;;11.50;99.90;;;;;;5037177;28;20053;-80
2023/08/10 02:44:37;;;;;;;3.47;1.52;;;11.60;99.90;;;;;;5039873;28;20041;-79
2023/08/10 02:47:04;;;;;;;6.28;1.42;;;11.50;99.90;;;;;;5042033;28;20033;-81
2023/08/10 02:49:30;;;;;;;2.92;1.50;;;11.60;99.90;;;;;;5040569;28;20037;-80
2023/08/10 02:51:56;;;;;;;2.22;1.15;;;11.70;99.90;;;;;;5054146;28;20049;-79
2023/08/10 02:54:22;;;;;;;3.05;1.65;;;11.70;99.90;;;;;;5039316;28;20147;-80
2023/08/10 02:56:48;;;;;;;4.78;1.25;;;11.60;99.90;;;;;;5053518;28;20048;-80
2023/08/10 02:59:14;;;;;;;3.80;1.35;;;11.70;99.90;;;;;;5041627;28;20347;-80
2023/08/10 03:01:40;;;;;;;5.97;1.63;;;11.60;99.90;;;;;;5037877;28;20046;-80
2023/08/10 03:04:07;;;;;;;4.05;1.83;;;11.60;99.90;;;;;;5038012;28;20056;-80
2023/08/10 03:06:33;;;;;;;4.88;1.33;;;11.60;99.90;;;;;;5052971;28;20494;-78
2023/08/10 03:08:59;;;;;;;11.00;1.83;;;11.50;99.90;;;;;;5038407;28;20046;-80
2023/08/10 03:11:26;;;;;;;7.53;2.70;;;11.40;99.90;;;;;;5037399;28;20121;-80
2023/08/10 03:13:53;;;;;;;3.00;1.25;;;11.40;99.90;;;;;;5054334;28;20037;-81
2023/08/10 03:16:19;;;;;;;4.40;1.88;;;11.50;99.90;;;;;;5036283;28;20046;-81
2023/08/10 03:18:46;;;;;;;3.65;1.50;;;11.50;99.90;;;;;;5055204;28;20057;-80
2023/08/10 03:21:12;;;;;;;3.05;1.73;;;11.50;99.90;;;;;;5039003;28;20069;-80
2023/08/10 03:23:39;;;;;;;3.13;1.73;;;11.40;99.90;;;;;;5039842;28;20044;-81
2023/08/10 03:26:05;;;;;;;3.10;1.60;;;11.40;99.90;;;;;;5055985;28;20486;-80
2023/08/10 03:28:31;;;;;;;3.25;1.77;;;11.40;99.90;;;;;;5043947;28;20037;-81
2023/08/10 03:30:58;;;;;;;2.90;1.40;;;11.30;99.90;;;;;;5037270;28;20049;-80
2023/08/10 03:33:26;;;;;;;4.13;1.80;;;11.30;99.90;;;;;;5057980;28;20038;-80
2023/08/10 03:35:52;;;;;;;4.03;1.83;;;11.30;99.90;;;;;;5046598;28;20051;-80
2023/08/10 03:38:19;;;;;;;5.20;1.80;;;11.30;99.90;;;;;;5057094;28;20041;-80
2023/08/10 03:40:45;;;;;;;4.13;2.03;;;11.30;99.90;;;;;;5051884;28;20470;-80
2023/08/10 03:43:11;;;;;;;3.45;2.10;;;11.40;99.90;;;;;;5038259;28;20025;-81
2023/08/10 03:45:37;;;;;;;3.20;1.65;;;11.30;99.90;;;;;;5034630;28;20041;-80
2023/08/10 03:48:04;;;;;;;2.90;1.58;;;11.30;99.90;;;;;;5050090;28;20052;-79
2023/08/10 03:50:30;;;;;;;5.03;1.70;;;11.20;99.90;;;;;;5035916;28;20029;-79
2023/08/10 03:52:56;;;;;;;6.10;2.10;;;11.30;99.90;;;;;;5034805;28;20163;-80
2023/08/10 03:55:22;;;;;;;5.22;2.85;;;11.40;99.90;;;;;;5037413;28;20037;-80
2023/08/10 03:57:49;;;;;;;8.30;2.90;;;11.40;99.90;;;;;;5051905;28;20048;-80
2023/08/10 04:00:16;;;;;;;3.45;1.65;;;11.40;99.90;;;;;;5050410;28;20041;-79
2023/08/10 04:02:47;;;;;;;3.13;1.17;;;11.30;99.90;;;;;;5049827;28;20057;-80
2023/08/10 04:05:19;;;;;;;11.02;2.40;;;11.20;99.90;;;;;;5050522;28;20398;-80
2023/08/10 04:07:45;;;;;;;2.38;1.60;;;11.20;99.90;;;;;;5031342;28;20049;-79
2023/08/10 04:10:11;;;;;;;4.80;1.77;;;11.10;99.90;;;;;;5035298;28;20916;-78
2023/08/10 04:12:38;;;;;;;4.80;2.05;;;11.00;99.90;;;;;;5037179;28;20479;-78
2023/08/10 04:15:08;;;;;;;5.25;1.77;;;11.00;99.90;;;;;;5041616;28;20037;-79
2023/08/10 04:17:36;;;;;;;4.05;2.30;;;11.00;99.90;;;;;;5065269;28;20048;-77
2023/08/10 04:20:09;;;;;;;3.45;1.60;;;11.00;99.90;;;;;;5052099;28;20038;-79
2023/08/10 04:22:36;;;;;;;4.30;1.67;;;11.00;99.90;;;;;;5035745;28;20033;-78
2023/08/10 04:25:03;;;;;;;4.40;2.20;;;11.20;99.90;;;;;;5037396;28;20041;-80
2023/08/10 04:27:29;;;;;;;4.63;1.40;;;11.30;99.90;;;;;;5036623;28;20070;-80
2023/08/10 04:29:56;;;;;;;3.13;1.42;;;11.30;99.90;;;;;;5028599;28;20033;-79
2023/08/10 04:32:22;;;;;;;2.45;1.30;;;11.30;99.90;;;;;;5033782;28;20033;-80
2023/08/10 04:34:48;;;;;;;5.57;1.58;;;11.30;99.90;;;;;;5031916;28;20030;-80
2023/08/10 04:37:14;;;;;;;5.43;2.22;;;11.20;99.90;;;;;;5035527;28;20553;-80
2023/08/10 04:39:43;;;;;;;3.30;1.33;;;11.30;99.90;;;;;;5034107;28;20360;-79
2023/08/10 04:42:09;;;;;;;4.13;1.35;;;11.30;99.90;;;;;;5033779;28;20045;-79
2023/08/10 04:44:39;;;;;;;4.55;2.33;;;11.40;99.90;;;;;;5034790;28;20037;-80
2023/08/10 04:47:05;;;;;;;3.08;1.10;;;11.50;99.90;;;;;;5034558;28;20044;-81
2023/08/10 04:49:32;;;;;;;3.63;1.75;;;11.50;99.90;;;;;;5036623;28;20157;-81
2023/08/10 04:51:58;;;;;;;8.68;2.85;;;11.70;99.90;;;;;;5033520;28;20112;-79
2023/08/10 04:54:24;;;;;;;3.88;1.63;;;11.80;99.90;;;;;;5036670;28;20037;-80
2023/08/10 04:56:50;;;;;;;3.80;1.80;;;11.90;99.90;;;;;;5033744;28;20038;-80
2023/08/10 04:59:16;;;;;;;2.92;1.42;;;12.10;99.90;;;;;;5039495;28;20487;-80
2023/08/10 05:01:42;;;;;;;2.83;1.80;;;12.10;99.90;;;;;;5026896;28;20492;-80
2023/08/10 05:04:09;;;;;;;5.90;1.63;;;12.20;99.90;;;;;;5038743;28;20055;-79
2023/08/10 05:06:36;;;;;;;4.30;1.20;;;12.30;99.90;;;;;;5034580;28;20041;-79
2023/08/10 05:09:04;;;;;;;4.13;1.35;;;12.30;99.90;;;;;;5036243;28;20037;-80
2023/08/10 05:11:30;;;;;;;3.33;1.40;;;12.40;99.90;;;;;;5038557;28;20029;-80
2023/08/10 05:13:56;;;;;;;3.13;1.33;;;12.50;99.90;;;;;;5030831;28;20042;-80
2023/08/10 05:16:22;;;;;;;3.30;1.58;;;12.50;99.90;;;;;;5034189;28;20048;-79
2023/08/10 05:18:50;;;;;;;2.50;1.10;;;12.60;99.90;;;;;;5034130;28;20033;-79
2023/08/10 05:21:17;;;;;;;7.43;1.75;;;12.70;99.90;;;;;;5033244;28;20033;-80
2023/08/10 05:23:43;;;;;;;2.58;1.33;;;12.70;99.90;;;;;;5033197;28;20040;-79
2023/08/10 05:26:10;;;;;;;6.22;1.52;;;12.80;99.90;;;;;;5032158;28;20047;-80
2023/08/10 05:28:36;;;;;;;3.50;1.52;;;12.90;99.90;;;;;;5034809;28;20030;-80
2023/08/10 05:31:02;;;;;;;4.95;2.28;;;13.00;99.90;;;;;;5048387;28;20052;-80
2023/08/10 05:33:29;;;;;;;3.60;1.67;;;13.10;99.90;;;;;;5033927;28;20030;-80
2023/08/10 05:35:56;;;;;;;4.85;1.50;;;13.20;99.90;;;;;;5035914;28;20144;-80
2023/08/10 05:38:22;;;;;;;4.45;1.60;;;13.20;99.90;;;;;;5033238;28;20390;-80
2023/08/10 05:40:48;;;;;;;3.17;1.20;;;13.30;99.90;;;;;;5023008;28;20038;-80
2023/08/10 05:43:14;;;;;;;2.85;1.40;;;13.30;99.90;;;;;;5033240;28;20044;-80
2023/08/10 05:45:40;;;;;;;4.45;1.55;;;13.30;99.90;;;;;;5034896;28;20040;-78
2023/08/10 05:48:10;;;;;;;2.60;1.38;;;13.40;99.90;;;;;;5054207;28;20044;-81
2023/08/10 05:50:37;;;;;;;3.50;1.33;;;13.40;99.90;;;;;;5037225;28;20040;-79
2023/08/10 05:53:05;;;;;;;4.50;1.42;;;13.50;99.90;;;;;;5033934;28;20042;-80
2023/08/10 05:55:32;;;;;;;2.42;1.55;;;13.50;99.90;;;;;;5042840;28;20081;-79
2023/08/10 05:57:59;;;;;;;3.47;1.92;;;13.50;99.90;;;;;;5039918;28;20037;-80
2023/08/10 06:00:26;;;;;;;2.83;1.92;;;13.60;99.90;;;;;;5034327;28;20111;-80
2023/08/10 06:02:53;;;;;;;2.05;1.17;;;13.70;99.90;;;;;;5029532;28;20077;-80
2023/08/10 06:05:20;;;;;;;3.75;1.40;;;13.70;99.90;;;;;;5032669;28;20030;-80
2023/08/10 06:07:47;;;;;;;2.17;1.60;;;13.80;99.90;;;;;;5029715;28;20048;-79
2023/08/10 06:10:14;;;;;;;9.63;2.72;;;13.80;99.90;;;;;;5030284;28;20048;-82
2023/08/10 06:12:43;;;;;;;5.20;1.45;;;13.90;99.90;;;;;;5034353;28;20036;-78
2023/08/10 06:15:10;;;;;;;3.22;1.67;;;13.90;99.90;;;;;;5031969;28;20028;-77
2023/08/10 06:17:40;;;;;;;2.95;1.42;;;14.00;99.90;;;;;;5035422;28;20033;-77
2023/08/10 06:20:10;;;;;;;7.32;2.10;;;14.10;99.90;;;;;;5029536;28;20061;-77
2023/08/10 06:22:38;;;;;;;4.95;1.85;;;14.20;99.90;;;;;;5029821;28;20045;-78
2023/08/10 06:25:05;;;;;;;4.28;1.80;;;14.30;99.90;;;;;;5021836;28;20034;-78
2023/08/10 06:27:33;;;;;;;4.15;2.35;;;14.40;99.90;;;;;;5046309;28;20044;-77
2023/08/10 06:29:59;;;;;;;2.67;1.40;;;14.40;99.90;;;;;;5031971;28;20029;-78
2023/08/10 06:32:25;;;;;;;4.28;2.13;;;14.40;99.90;;;;;;5029537;28;20029;-78
2023/08/10 06:34:54;;;;;;;4.90;1.27;;;14.50;99.90;;;;;;5031558;28;20030;-78
2023/08/10 06:37:20;;;;;;;3.47;1.63;;;14.60;99.90;;;;;;5032996;28;20041;-77
2023/08/10 06:39:46;;;;;;;2.75;1.30;;;14.70;99.90;;;;;;5027424;28;20026;-78
2023/08/10 06:42:12;;;;;;;5.00;1.50;;;14.80;99.90;;;;;;5029323;28;20037;-78
2023/08/10 06:44:41;;;;;;;3.35;1.63;;;14.90;99.90;;;;;;5049282;28;20056;-78
2023/08/10 06:47:07;;;;;;;2.75;1.55;;;15.10;99.90;;;;;;5031738;28;20039;-79
2023/08/10 06:49:34;;;;;;;4.10;1.55;;;15.10;94.00;;;;;;5032833;28;20049;-78
2023/08/10 06:52:01;;;;;;;4.57;1.77;;;15.30;99.90;;;;;;5026461;28;20026;-79
2023/08/10 06:54:27;;;;;;;4.68;2.83;;;15.60;97.30;;;;;;5031852;28;20382;-79
2023/08/10 06:56:54;;;;;;;3.50;1.33;;;15.90;24.60;;;;;;5023482;28;20059;-79
2023/08/10 06:59:20;;;;;;;5.15;1.80;;;15.90;1.00;;;;;;5034941;28;20053;-79
2023/08/10 07:01:46;;;;;;;4.43;1.98;;;15.90;1.00;;;;;;5024583;28;20033;-79
2023/08/10 07:04:12;;;;;;;2.47;1.25;;;15.90;1.00;;;;;;5030524;28;20048;-79
2023/08/10 07:06:38;;;;;;;1.85;1.38;;;15.90;1.00;;;;;;5030633;28;20040;-79
2023/08/10 07:09:04;;;;;;;3.65;1.10;;;16.20;1.00;;;;;;5030571;28;20050;-79
2023/08/10 07:11:31;;;;;;;1.88;1.25;;;16.50;1.00;;;;;;5032526;28;20037;-79
2023/08/10 07:13:57;;;;;;;2.83;1.25;;;16.80;1.00;;;;;;5043484;28;20053;-79
2023/08/10 07:16:23;;;;;;;2.50;1.17;;;17.10;1.00;;;;;;5036557;28;20041;-78
2023/08/10 07:18:50;;;;;;;1.95;1.50;;;17.20;99.90;;;;;;5034096;28;20041;-79
2023/08/10 07:21:17;;;;;;;1.67;0.88;;;17.30;99.90;;;;;;5030937;28;20056;-79
2023/08/10 07:23:43;;;;;;;3.10;1.08;;;17.40;99.90;;;;;;5030450;28;20074;-79
2023/08/10 07:26:10;;;;;;;2.22;1.20;;;17.70;99.90;;;;;;5028852;28;20045;-79
2023/08/10 07:28:36;;;;;;;2.38;1.40;;;18.10;99.90;;;;;;5032468;28;20049;-79
2023/08/10 07:31:03;;;;;;;3.58;1.38;;;18.10;99.90;;;;;;5032551;28;20040;-79
2023/08/10 07:33:29;;;;;;;1.90;0.95;;;17.90;99.90;;;;;;5032044;28;20041;-79
2023/08/10 07:35:56;;;;;;;2.33;1.23;;;18.00;99.90;;;;;;5035275;28;20458;-77
2023/08/10 07:38:23;;;;;;;2.92;1.00;;;18.30;99.90;;;;;;5038336;28;20041;-76
2023/08/10 07:40:49;;;;;;;2.03;1.23;;;19.30;99.90;;;;;;5035297;28;20034;-79
2023/08/10 07:43:15;;;;;;;2.42;1.27;;;19.50;99.90;;;;;;5036423;28;20131;-77
2023/08/10 07:45:41;;;;;;;2.67;1.13;;;20.20;99.90;;;;;;5038468;28;20052;-77
2023/08/10 07:48:07;;;;;;;2.85;1.05;;;20.60;55.70;;;;;;5033275;28;20025;-77
2023/08/10 07:50:33;;;;;;;2.60;1.42;;;21.00;1.00;;;;;;5027578;28;20402;-77
2023/08/10 07:53:02;;;;;;;2.25;1.17;;;21.20;1.00;;;;;;5031047;28;20038;-78
2023/08/10 07:55:28;;;;;;;8.23;2.33;;;21.10;1.00;;;;;;5032119;28;20120;-78
2023/08/10 07:57:54;;;;;;;2.67;1.50;;;20.40;1.00;;;;;;5033968;28;20044;-78
2023/08/10 08:00:20;;;;;;;2.95;0.90;;;19.80;24.30;;;;;;5034361;28;20410;-77
2023/08/10 08:02:49;;;;;;;3.35;1.80;;;19.60;74.20;;;;;;5036974;28;20390;-80
2023/08/10 08:05:16;;;;;;;3.58;2.30;;;19.70;31.10;;;;;;5032523;28;20030;-76
2023/08/10 08:07:44;;;;;;;3.22;1.67;;;19.70;30.70;;;;;;5029988;28;20398;-77
2023/08/10 08:10:10;;;;;;;3.72;1.67;;;19.70;1.80;;;;;;5031909;28;20446;-78
2023/08/10 08:12:37;;;;;;;3.05;1.85;;;20.00;13.70;;;;;;5038802;28;20047;-77
2023/08/10 08:15:03;;;;;;;2.25;1.42;;;20.60;7.00;;;;;;5035637;28;20402;-76
2023/08/10 08:18:08;;;;;;;3.70;1.70;;;20.80;1.00;;;;;;5038411;28;20048;-76
2023/08/10 08:20:35;;;;;;;3.92;1.67;;;21.40;1.00;;;;;;5036143;28;20034;-75
2023/08/10 08:23:01;;;;;;;1.15;0.90;;;20.90;1.00;;;;;;5037585;28;20040;-77
2023/08/10 08:25:28;;;;;;;1.40;1.00;;;20.50;1.00;;;;;;5027888;28;20041;-76
2023/08/10 08:27:54;;;;;;;1.70;0.90;;;20.50;1.00;;;;;;5029129;28;20045;-76
2023/08/10 08:30:20;;;;;;;2.97;1.33;;;20.90;1.00;;;;;;5030459;28;20050;-76
2023/08/10 08:32:46;;;;;;;2.40;1.15;;;21.30;1.00;;;;;;5033573;28;20033;-83
2023/08/10 08:35:12;;;;;;;6.80;1.67;;;21.10;1.00;;;;;;5037541;28;20040;-84
2023/08/10 08:37:38;;;;;;;4.00;1.75;;;20.90;1.00;;;;;;5037758;28;20037;-83
2023/08/10 08:40:05;;;;;;;2.90;1.75;;;21.10;1.00;;;;;;5032586;28;20501;-82
2023/08/10 08:42:33;;;;;;;6.65;2.33;;;21.30;1.00;;;;;;5034507;28;20033;-84
2023/08/10 08:44:59;;;;;;;5.03;1.73;;;21.20;1.00;;;;;;5036206;28;20025;-83
2023/08/10 08:47:25;;;;;;;3.85;2.10;;;21.00;1.00;;;;;;5038495;28;20033;-81
2023/08/10 08:49:52;;;;;;;3.25;1.45;;;21.10;1.00;;;;;;5035811;28;20056;-84
2023/08/10 08:52:20;;;;;;;4.35;1.48;;;21.30;1.00;;;;;;5033990;28;20482;-82
2023/08/10 08:54:47;;;;;;;2.25;1.48;;;22.10;99.90;;;;;;5038459;28;20040;-82
2023/08/10 08:57:13;;;;;;;4.68;1.98;;;22.80;99.90;;;;;;5032984;28;20051;-81
2023/08/10 08:59:40;;;;;;;2.80;1.35;;;23.50;99.90;;;;;;5034536;28;20100;-82
2023/08/10 09:02:08;;;;;;;1.95;1.23;;;23.70;99.90;;;;;;5036036;28;20040;-82
2023/08/10 09:04:34;;;;;;;2.08;1.10;;;23.20;99.90;;;;;;5039121;28;20037;-81
2023/08/10 09:07:01;;;;;;;3.83;2.17;;;23.50;99.90;;;;;;5035810;28;20048;-80
2023/08/10 09:09:27;;;;;;;4.10;0.90;;;23.90;99.90;;;;;;5036452;28;20037;-79
2023/08/10 09:11:53;;;;;;;3.55;1.33;;;23.70;99.90;;;;;;5036666;28;20399;-82
2023/08/10 09:14:19;;;;;;;2.95;1.52;;;23.80;99.90;;;;;;5031798;28;20481;-82
2023/08/10 09:16:45;;;;;;;2.60;0.95;;;23.90;99.90;;;;;;5033843;28;20041;-82
2023/08/10 09:19:12;;;;;;;2.30;1.33;;;23.90;99.90;;;;;;5034452;28;20608;-82
2023/08/10 09:21:39;;;;;;;1.85;0.95;;;24.40;99.90;;;;;;5035193;28;20033;-82
2023/08/10 09:24:09;;;;;;;3.28;0.98;;;24.60;99.90;;;;;;5030495;28;20041;-81
2023/08/10 09:26:35;;;;;;;;;;;24.60;99.90;;;;;;5036840;28;20490;-82
2023/08/10 09:29:03;;;;;;;1.58;0.80;;;24.50;99.90;;;;;;5035106;28;19956;-80
2023/08/10 09:31:29;;;;;;;1.48;1.02;;;23.80;99.90;;;;;;5034646;28;20375;-81
2023/08/10 09:33:57;;;;;;;2.40;1.15;;;23.40;99.90;;;;;;5035002;28;20025;-81
2023/08/10 09:36:25;;;;;;;1.73;1.10;;;23.30;99.90;;;;;;5035696;28;20045;-82
2023/08/10 09:38:53;;;;;;;2.83;1.10;;;23.20;99.90;;;;;;5034144;28;20030;-81
2023/08/10 09:41:20;;;;;;;1.38;0.80;;;23.50;99.90;;;;;;5032552;28;20045;-80
2023/08/10 09:43:47;;;;;;;2.72;1.25;;;23.90;99.90;;;;;;5035989;28;20097;-81
2023/08/10 09:46:14;;;;;;;3.80;1.27;;;24.50;99.90;;;;;;5040318;28;20029;-80
2023/08/10 09:48:44;;;;;;;2.38;1.60;;;24.70;99.90;;;;;;5038616;28;20034;-80
2023/08/10 09:51:11;;;;;;;3.58;1.73;;;24.80;99.90;;;;;;5035525;28;20038;-78
2023/08/10 09:53:38;;;;;;;1.75;1.10;;;24.80;99.90;;;;;;5037075;28;20029;-81
2023/08/10 09:56:08;;;;;;;3.50;1.30;;;23.70;99.90;;;;;;5031225;28;20029;-82
2023/08/10 09:58:36;;;;;;;3.92;1.63;;;22.80;99.90;;;;;;5035120;28;20044;-80
2023/08/10 10:01:03;;;;;;;1.92;1.20;;;23.10;99.90;;;;;;5034387;28;20053;-81
2023/08/10 10:03:31;;;;;;;1.77;1.30;;;23.50;99.90;;;;;;5040241;28;20048;-80
2023/08/10 10:05:58;;;;;;;2.50;1.60;;;23.80;99.90;;;;;;5034595;28;20034;-81
2023/08/10 10:08:28;;;;;;;1.85;0.98;;;24.20;99.90;;;;;;5032722;28;20037;-79
2023/08/10 10:11:00;;;;;;;2.38;1.10;;;24.50;99.90;;;;;;5037792;28;20033;-80
2023/08/10 10:13:28;;;;;;;2.05;0.98;;;24.80;99.90;;;;;;5031284;28;20047;-82
2023/08/10 10:15:55;;;;;;;2.22;1.58;;;24.90;99.90;;;;;;5037613;28;20056;-81
2023/08/10 10:18:23;;;;;;;2.75;1.25;;;23.90;99.90;;;;;;5035249;28;20034;-83
2023/08/10 10:20:50;;;;;;;1.55;1.02;;;23.20;99.90;;;;;;5034350;28;20040;-83
2023/08/10 10:23:21;;;;;;;4.22;1.60;;;23.50;99.90;;;;;;5030238;28;20147;-84
2023/08/10 10:25:57;;;;;;;2.30;1.00;;;23.40;99.90;;;;;;5034274;28;20029;-82
2023/08/10 10:28:23;;;;;;;2.08;1.10;;;23.90;99.90;;;;;;5033525;28;20052;-81
2023/08/10 10:31:06;;;;;;;1.42;0.73;;;24.20;99.90;;;;;;5032365;28;20041;-80
2023/08/10 10:33:34;;;;;;;1.95;1.10;;;24.30;99.90;;;;;;5033394;28;20391;-80
2023/08/10 10:36:18;;;;;;;1.80;0.75;;;24.20;99.90;;;;;;5036518;28;20042;-82
2023/08/10 10:38:52;;;;;;;1.00;0.40;;;24.10;99.90;;;;;;5037384;28;20033;-81
2023/08/10 10:41:32;;;;;;;3.10;1.48;;;24.40;99.90;;;;;;5030644;28;20038;-81
2023/08/10 10:43:59;;;;;;;1.52;0.70;;;24.30;99.90;;;;;;5038126;28;20415;-82
2023/08/10 10:46:32;;;;;;;2.08;1.23;;;24.30;99.90;;;;;;5021672;28;20124;-79
2023/08/10 10:48:59;;;;;;;1.95;0.80;;;24.30;99.90;;;;;;5030812;28;20037;-80
2023/08/10 10:51:28;;;;;;;2.30;0.80;;;24.20;99.90;;;;;;5035572;28;20037;-79
2023/08/10 10:53:54;;;;;;;3.03;1.38;;;24.00;99.90;;;;;;5036789;28;20501;-81
2023/08/10 10:56:22;;;;;;;2.50;0.90;;;23.80;99.90;;;;;;5040516;28;20025;-81
2023/08/10 10:58:48;;;;;;;2.42;1.13;;;23.90;99.90;;;;;;5037689;28;20037;-83
2023/08/10 11:01:21;;;;;;;2.97;1.10;;;24.00;99.90;;;;;;5037107;28;20052;-81
2023/08/10 11:03:55;;;;;;;6.30;2.17;;;24.20;99.90;;;;;;5038385;28;20037;-83
2023/08/10 11:06:24;;;;;;;3.60;1.13;;;23.70;99.90;;;;;;5035953;28;20045;-80
2023/08/10 11:08:51;;;;;;;1.67;1.05;;;23.80;99.90;;;;;;5035538;28;20033;-81
2023/08/10 11:11:18;;;;;;;4.15;1.38;;;24.10;99.90;;;;;;5037787;28;20036;-79
2023/08/10 11:13:44;;;;;;;2.97;1.20;;;24.30;99.90;;;;;;5038910;28;20135;-82
2023/08/10 11:16:10;;;;;;;1.88;1.15;;;24.30;99.90;;;;;;5038777;28;20049;-81
2023/08/10 11:18:37;;;;;;;2.40;1.13;;;24.20;99.90;;;;;;5037278;28;20037;-81
2023/08/10 11:21:06;;;;;;;1.58;0.93;;;24.10;99.90;;;;;;5036519;28;20041;-81
2023/08/10 11:23:32;;;;;;;1.83;1.10;;;24.20;99.90;;;;;;5035729;28;20041;-82
2023/08/10 11:25:59;;;;;;;1.77;1.02;;;24.30;99.90;;;;;;5035624;28;20029;-83
2023/08/10 11:28:26;;;;;;;3.78;1.27;;;24.20;99.90;;;;;;5053616;28;20029;-81
2023/08/10 11:30:52;;;;;;;2.03;0.75;;;24.20;99.90;;;;;;5037765;28;20045;-81
2023/08/10 11:33:19;;;;;;;2.20;1.05;;;24.50;99.90;;;;;;5037608;28;20048;-80
2023/08/10 11:35:50;;;;;;;2.65;1.25;;;24.80;99.90;;;;;;5049504;28;20037;-82
2023/08/10 11:38:16;;;;;;;2.80;1.00;;;24.90;99.90;;;;;;5038508;28;20037;-81
2023/08/10 11:40:42;;;;;;;3.13;1.30;;;24.70;99.90;;;;;;5035697;28;20148;-81
2023/08/10 11:43:14;;;;;;;2.70;0.95;;;24.60;99.90;;;;;;5038503;28;20037;-81
2023/08/10 11:45:41;;;;;;;2.08;1.27;;;24.90;99.90;;;;;;5032418;28;20026;-77
2023/08/10 11:48:13;;;;;;;3.20;1.10;;;25.00;99.90;;;;;;5024865;28;20402;-77
2023/08/10 11:50:40;;;;;;;2.03;0.80;;;24.90;99.90;;;;;;5024910;28;20125;-78
2023/08/10 11:53:11;;;;;;;3.15;1.02;;;24.40;99.90;;;;;;5036201;28;20390;-79
2023/08/10 11:55:45;;;;;;;8.68;1.58;;;24.50;99.90;;;;;;5035437;28;20490;-79
2023/08/10 11:58:13;;;;;;;1.92;0.90;;;24.90;99.90;;;;;;5032642;28;20040;-79
2023/08/10 12:00:50;;;;;;;2.30;1.48;;;25.00;99.90;;;;;;5038489;28;20049;-78
2023/08/10 12:03:22;;;;;;;1.52;1.00;;;24.70;99.90;;;;;;5035516;28;20050;-80
2023/08/10 12:05:50;;;;;;;2.72;0.95;;;24.50;99.90;;;;;;5038816;28;20036;-80
2023/08/10 12:08:25;;;;;;;4.70;1.10;;;24.70;99.90;;;;;;5030378;28;20032;-80
2023/08/10 12:11:03;;;;;;;2.38;0.93;;;25.00;99.90;;;;;;5035788;28;20044;-78
2023/08/10 12:13:30;;;;;;;2.88;1.70;;;24.90;99.90;;;;;;5047123;28;20439;-80
2023/08/10 12:15:58;;;;;;;3.65;1.45;;;24.70;99.90;;;;;;5036821;28;20033;-80
2023/08/10 12:18:27;;;;;;;4.15;1.58;;;24.80;99.90;;;;;;5036010;28;20056;-77
2023/08/10 12:20:55;;;;;;;1.67;0.88;;;24.60;99.90;;;;;;5037923;28;20025;-79
2023/08/10 12:23:21;;;;;;;1.98;1.23;;;24.60;99.90;;;;;;5029948;28;20040;-79
2023/08/10 12:25:48;;;;;;;2.72;1.30;;;24.80;99.90;;;;;;5035184;28;20030;-79
2023/08/10 12:28:17;;;;;;;2.88;1.02;;;25.00;99.90;;;;;;5039714;28;20052;-80
2023/08/10 12:30:48;;;;;;;3.00;1.70;;;25.10;99.90;;;;;;5038004;28;20032;-81
2023/08/10 12:33:15;;;;;;;7.43;1.25;;;25.50;99.90;;;;;;5031159;28;20056;-81
2023/08/10 12:35:42;;;;;;;1.60;0.93;;;25.70;99.90;;;;;;5030000;28;20033;-80
2023/08/10 12:38:11;;;;;;;1.88;1.15;;;25.80;99.90;;;;;;5036973;28;20033;-81
2023/08/10 12:40:39;;;;;;;2.72;0.98;;;25.90;99.90;;;;;;5035548;28;20045;-81
2023/08/10 12:43:06;;;;;;;3.55;1.85;;;26.00;99.90;;;;;;5030362;28;20038;-81
2023/08/10 12:45:32;;;;;;;1.95;1.02;;;26.00;99.90;;;;;;5034749;28;20034;-81
2023/08/10 12:48:00;;;;;;;1.98;0.80;;;25.70;99.90;;;;;;5037219;28;20044;-78
2023/08/10 12:50:27;;;;;;;2.33;0.98;;;25.90;99.90;;;;;;5048157;28;20041;-81